Time;durP1;ratioP1;P1;durP2;ratioP2;P2;SDS_P1;SDS_P2;PMS_P1;PMS_P2;Temp;Humidity;BMP_temperature;BMP_pressure;BME280_temperature;BME280_humidity;BME280_pressure;Samples;Min_cycle;Max_cycle;Signal;HPM_P1;HPM_P2
2021/08/05 00:00:17;;;;;;;0.00;0.00;;;;;;;;;;5118731;28;20204;-81
2021/08/05 00:02:44;;;;;;;0.00;0.00;;;;;;;;;;5118843;28;20322;-81
2021/08/05 00:05:10;;;;;;;0.00;0.00;;;;;;;;;;5106269;28;20200;-81
2021/08/05 00:07:37;;;;;;;0.00;0.00;;;;;;;;;;5119935;28;20221;-81
2021/08/05 00:10:03;;;;;;;0.05;0.05;;;;;;;;;;5111463;28;20244;-80
2021/08/05 00:12:31;;;;;;;0.00;0.00;;;;;;;;;;5108676;28;20234;-81
2021/08/05 00:14:57;;;;;;;0.00;0.00;;;;;;;;;;5124414;28;20203;-81
2021/08/05 00:17:23;;;;;;;0.10;0.10;;;;;;;;;;5121611;28;20223;-82
2021/08/05 00:19:50;;;;;;;0.00;0.00;;;;;;;;;;5109084;28;20204;-81
2021/08/05 00:22:16;;;;;;;0.00;0.00;;;;;;;;;;5113957;28;20209;-81
2021/08/05 00:24:42;;;;;;;0.10;0.10;;;;;;;;;;5116913;28;20209;-81
2021/08/05 00:27:08;;;;;;;0.03;0.03;;;;;;;;;;5122475;28;20270;-81
2021/08/05 00:29:36;;;;;;;0.00;0.00;;;;;;;;;;5107812;28;20414;-81
2021/08/05 00:32:02;;;;;;;0.00;0.00;;;;;;;;;;5107964;28;20301;-81
2021/08/05 00:34:29;;;;;;;0.08;0.08;;;;;;;;;;5112250;28;20201;-81
2021/08/05 00:36:55;;;;;;;0.08;0.08;;;;;;;;;;5128400;28;20255;-80
2021/08/05 00:39:21;;;;;;;0.10;0.10;;;;;;;;;;5113193;28;20263;-81
2021/08/05 00:41:47;;;;;;;0.00;0.00;;;;;;;;;;5128389;28;20215;-82
2021/08/05 00:44:14;;;;;;;0.00;0.00;;;;;;;;;;5128955;27;20430;-82
2021/08/05 00:46:41;;;;;;;0.10;0.10;;;;;;;;;;5121913;28;20482;-81
2021/08/05 00:49:08;;;;;;;0.00;0.00;;;;;;;;;;5120780;28;20205;-81
2021/08/05 00:51:34;;;;;;;0.00;0.00;;;;;;;;;;5127943;27;20280;-81
2021/08/05 00:54:00;;;;;;;0.10;0.10;;;;;;;;;;5116385;28;20202;-80
2021/08/05 00:56:27;;;;;;;0.10;0.10;;;;;;;;;;5109523;28;20528;-79
2021/08/05 00:58:53;;;;;;;0.10;0.10;;;;;;;;;;5126850;28;20228;-81
2021/08/05 01:01:20;;;;;;;0.10;0.10;;;;;;;;;;5111124;28;20223;-80
2021/08/05 01:03:51;;;;;;;0.10;0.10;;;;;;;;;;5107296;28;20244;-81
2021/08/05 01:06:23;;;;;;;0.10;0.10;;;;;;;;;;5115544;28;20226;-80
2021/08/05 01:08:51;;;;;;;0.00;0.00;;;;;;;;;;5109984;28;20223;-80
2021/08/05 01:11:19;;;;;;;0.00;0.00;;;;;;;;;;5121191;28;20201;-81
2021/08/05 01:13:49;;;;;;;0.10;0.10;;;;;;;;;;5122978;28;20202;-79
2021/08/05 01:16:17;;;;;;;0.00;0.00;;;;;;;;;;5127638;27;20567;-81
2021/08/05 01:18:46;;;;;;;0.00;0.00;;;;;;;;;;5126773;28;20258;-80
2021/08/05 01:21:15;;;;;;;0.10;0.10;;;;;;;;;;5127052;27;20219;-81
2021/08/05 01:23:43;;;;;;;0.00;0.00;;;;;;;;;;5127750;28;20454;-81
2021/08/05 01:26:11;;;;;;;0.00;0.00;;;;;;;;;;5121979;28;20212;-81
2021/08/05 01:28:41;;;;;;;0.00;0.00;;;;;;;;;;5107601;28;20484;-82
2021/08/05 01:31:08;;;;;;;0.00;0.00;;;;;;;;;;5125396;28;20227;-81
2021/08/05 01:33:36;;;;;;;0.00;0.00;;;;;;;;;;5127217;28;20213;-81
2021/08/05 01:36:03;;;;;;;0.10;0.10;;;;;;;;;;5112529;28;20236;-81
2021/08/05 01:38:30;;;;;;;0.10;0.10;;;;;;;;;;5126868;28;20223;-81
2021/08/05 01:40:57;;;;;;;0.08;0.08;;;;;;;;;;5126627;28;20209;-81
2021/08/05 01:43:23;;;;;;;0.00;0.00;;;;;;;;;;5127549;28;20205;-81
2021/08/05 01:45:51;;;;;;;0.00;0.00;;;;;;;;;;5127023;28;20208;-82
2021/08/05 01:48:18;;;;;;;0.00;0.00;;;;;;;;;;5107131;28;20202;-82
2021/08/05 01:50:45;;;;;;;0.00;0.00;;;;;;;;;;5118460;28;20256;-80
2021/08/05 01:53:13;;;;;;;0.10;0.10;;;;;;;;;;5112176;27;20240;-79
2021/08/05 01:55:39;;;;;;;0.00;0.00;;;;;;;;;;5116138;28;20522;-80
2021/08/05 01:58:05;;;;;;;0.10;0.10;;;;;;;;;;5108371;28;20439;-82
2021/08/05 02:00:31;;;;;;;0.00;0.00;;;;;;;;;;5118778;28;20208;-80
2021/08/05 02:02:59;;;;;;;0.00;0.00;;;;;;;;;;5120599;28;20205;-82
2021/08/05 02:05:27;;;;;;;0.00;0.00;;;;;;;;;;5126483;28;20549;-81
2021/08/05 02:07:55;;;;;;;0.08;0.08;;;;;;;;;;5113148;28;20215;-81
2021/08/05 02:10:24;;;;;;;0.00;0.00;;;;;;;;;;5111227;28;20228;-81
2021/08/05 02:12:54;;;;;;;0.10;0.10;;;;;;;;;;5126924;28;20201;-81
2021/08/05 02:15:20;;;;;;;0.00;0.00;;;;;;;;;;5109309;28;20262;-81
2021/08/05 02:17:50;;;;;;;0.00;0.00;;;;;;;;;;5115489;28;20215;-82
2021/08/05 02:20:17;;;;;;;0.00;0.00;;;;;;;;;;5126564;28;20250;-81
2021/08/05 02:22:45;;;;;;;0.08;0.08;;;;;;;;;;5126770;28;20488;-82
2021/08/05 02:25:12;;;;;;;0.10;0.10;;;;;;;;;;5111772;28;20214;-80
2021/08/05 02:27:39;;;;;;;0.10;0.10;;;;;;;;;;5111947;28;20358;-80
2021/08/05 02:30:06;;;;;;;0.00;0.00;;;;;;;;;;5124982;28;20262;-82
2021/08/05 02:32:32;;;;;;;0.00;0.00;;;;;;;;;;5121455;28;20301;-81
2021/08/05 02:34:59;;;;;;;0.00;0.00;;;;;;;;;;5115864;28;20421;-81
2021/08/05 02:37:27;;;;;;;0.00;0.00;;;;;;;;;;5126091;28;20273;-82
2021/08/05 02:39:54;;;;;;;0.10;0.10;;;;;;;;;;5126197;28;20233;-81
2021/08/05 02:42:20;;;;;;;0.10;0.10;;;;;;;;;;5124362;28;20217;-77
2021/08/05 02:44:47;;;;;;;0.10;0.10;;;;;;;;;;5124479;28;20222;-79
2021/08/05 02:47:13;;;;;;;0.00;0.00;;;;;;;;;;5124946;27;20208;-81
2021/08/05 02:49:40;;;;;;;0.00;0.00;;;;;;;;;;5125013;28;20375;-82
2021/08/05 02:52:06;;;;;;;0.00;0.00;;;;;;;;;;5125621;28;20423;-80
2021/08/05 02:54:34;;;;;;;0.00;0.00;;;;;;;;;;5121563;28;20201;-81
2021/08/05 02:57:00;;;;;;;0.00;0.00;;;;;;;;;;5115503;28;20249;-81
2021/08/05 02:59:27;;;;;;;0.10;0.10;;;;;;;;;;5125360;28;20561;-81
2021/08/05 03:01:53;;;;;;;0.08;0.08;;;;;;;;;;5125716;28;20204;-81
2021/08/05 03:04:19;;;;;;;0.00;0.00;;;;;;;;;;5125402;28;20208;-80
2021/08/05 03:06:46;;;;;;;0.10;0.10;;;;;;;;;;5125221;28;20208;-81
2021/08/05 03:09:12;;;;;;;0.00;0.00;;;;;;;;;;5126490;28;20200;-81
2021/08/05 03:11:40;;;;;;;0.00;0.00;;;;;;;;;;5107627;28;20204;-79
2021/08/05 03:14:06;;;;;;;0.08;0.08;;;;;;;;;;5112414;28;20204;-81
2021/08/05 03:16:32;;;;;;;0.00;0.00;;;;;;;;;;5127047;28;20202;-81
2021/08/05 03:18:58;;;;;;;0.10;0.10;;;;;;;;;;5123767;28;20240;-82
2021/08/05 03:21:25;;;;;;;0.10;0.10;;;;;;;;;;5127420;28;20206;-81
2021/08/05 03:23:51;;;;;;;0.10;0.10;;;;;;;;;;5124610;28;20201;-81
2021/08/05 03:26:17;;;;;;;0.00;0.00;;;;;;;;;;5105265;28;20199;-81
2021/08/05 03:28:45;;;;;;;0.00;0.00;;;;;;;;;;5113768;28;20197;-79
2021/08/05 03:31:11;;;;;;;0.10;0.10;;;;;;;;;;5113406;28;20471;-78
2021/08/05 03:33:37;;;;;;;0.00;0.00;;;;;;;;;;5106466;28;20416;-80
2021/08/05 03:36:04;;;;;;;0.00;0.00;;;;;;;;;;5108281;28;20421;-81
2021/08/05 03:38:30;;;;;;;0.00;0.00;;;;;;;;;;5112392;28;20403;-81
2021/08/05 03:40:57;;;;;;;0.10;0.10;;;;;;;;;;5109815;28;20206;-81
2021/08/05 03:43:23;;;;;;;0.10;0.10;;;;;;;;;;5113704;28;20273;-82
2021/08/05 03:45:50;;;;;;;0.10;0.10;;;;;;;;;;5108315;28;20360;-82
2021/08/05 03:48:17;;;;;;;0.03;0.03;;;;;;;;;;5116373;28;20254;-81
2021/08/05 03:50:43;;;;;;;0.10;0.10;;;;;;;;;;5108863;28;20205;-80
2021/08/05 03:53:10;;;;;;;0.00;0.00;;;;;;;;;;5108331;28;20206;-81
2021/08/05 03:55:36;;;;;;;0.10;0.10;;;;;;;;;;5110792;28;20211;-82
2021/08/05 03:58:02;;;;;;;0.00;0.00;;;;;;;;;;5122746;28;20594;-81
2021/08/05 04:00:29;;;;;;;0.03;0.03;;;;;;;;;;5118914;28;20241;-80
2021/08/05 04:02:56;;;;;;;0.08;0.08;;;;;;;;;;5113936;27;20212;-81
2021/08/05 04:05:23;;;;;;;0.10;0.10;;;;;;;;;;5106819;28;20213;-80
2021/08/05 04:07:49;;;;;;;0.00;0.00;;;;;;;;;;5113064;28;20207;-81
2021/08/05 04:10:16;;;;;;;0.00;0.00;;;;;;;;;;5109725;28;20197;-81
2021/08/05 04:12:42;;;;;;;0.10;0.10;;;;;;;;;;5117390;28;20203;-80
2021/08/05 04:15:08;;;;;;;0.00;0.00;;;;;;;;;;5113656;28;20486;-81
2021/08/05 04:17:35;;;;;;;0.10;0.10;;;;;;;;;;5128119;27;20201;-80
2021/08/05 04:20:03;;;;;;;0.00;0.00;;;;;;;;;;5128186;28;20243;-82
2021/08/05 04:22:30;;;;;;;0.10;0.10;;;;;;;;;;5128333;28;20208;-80
2021/08/05 04:24:56;;;;;;;0.10;0.10;;;;;;;;;;5128770;28;20235;-81
2021/08/05 04:27:22;;;;;;;0.00;0.00;;;;;;;;;;5128474;28;20204;-81
2021/08/05 04:29:48;;;;;;;0.00;0.00;;;;;;;;;;5118205;28;20318;-81
2021/08/05 04:32:15;;;;;;;0.00;0.00;;;;;;;;;;5122416;28;20205;-81
2021/08/05 04:34:41;;;;;;;0.00;0.00;;;;;;;;;;5115833;28;20220;-81
2021/08/05 04:37:08;;;;;;;0.00;0.00;;;;;;;;;;5113293;27;20245;-81
2021/08/05 04:39:35;;;;;;;0.00;0.00;;;;;;;;;;5119997;28;20426;-81
2021/08/05 04:42:01;;;;;;;0.05;0.05;;;;;;;;;;5123993;28;20231;-81
2021/08/05 04:44:27;;;;;;;0.10;0.10;;;;;;;;;;5107817;28;20232;-82
2021/08/05 04:46:54;;;;;;;0.10;0.10;;;;;;;;;;5108023;28;20564;-81
2021/08/05 04:49:20;;;;;;;0.00;0.00;;;;;;;;;;5107553;28;20209;-82
2021/08/05 04:51:47;;;;;;;0.10;0.10;;;;;;;;;;5107067;28;20211;-81
2021/08/05 04:54:14;;;;;;;0.10;0.10;;;;;;;;;;5129122;28;20207;-81
2021/08/05 04:56:41;;;;;;;0.03;0.03;;;;;;;;;;5115732;28;20207;-81
2021/08/05 04:59:07;;;;;;;0.10;0.10;;;;;;;;;;5121165;28;20249;-81
2021/08/05 05:01:33;;;;;;;0.00;0.00;;;;;;;;;;5116520;28;20246;-81
2021/08/05 05:04:00;;;;;;;0.00;0.00;;;;;;;;;;5121991;28;20417;-81
2021/08/05 05:06:26;;;;;;;0.00;0.00;;;;;;;;;;5107732;28;20216;-81
2021/08/05 05:08:53;;;;;;;0.10;0.10;;;;;;;;;;5107098;28;20239;-80
2021/08/05 05:11:20;;;;;;;0.00;0.00;;;;;;;;;;5115371;28;20204;-83
2021/08/05 05:13:47;;;;;;;0.10;0.10;;;;;;;;;;5127775;28;20464;-81
2021/08/05 05:16:13;;;;;;;0.10;0.10;;;;;;;;;;5117305;28;20228;-81
2021/08/05 05:18:40;;;;;;;0.00;0.00;;;;;;;;;;5124413;28;20236;-81
2021/08/05 05:21:06;;;;;;;0.03;0.03;;;;;;;;;;5127886;28;20205;-82
2021/08/05 05:23:33;;;;;;;0.05;0.05;;;;;;;;;;5126814;28;20240;-80
2021/08/05 05:25:59;;;;;;;0.08;0.08;;;;;;;;;;5113274;28;20235;-82
2021/08/05 05:28:29;;;;;;;0.00;0.00;;;;;;;;;;5127362;28;20206;-81
2021/08/05 05:30:55;;;;;;;0.10;0.10;;;;;;;;;;5127244;28;20279;-80
2021/08/05 05:33:22;;;;;;;0.10;0.10;;;;;;;;;;5115593;28;20243;-82
2021/08/05 05:35:48;;;;;;;0.00;0.00;;;;;;;;;;5110431;28;20210;-81
2021/08/05 05:38:14;;;;;;;0.00;0.00;;;;;;;;;;5126463;28;20202;-83
2021/08/05 05:40:41;;;;;;;0.10;0.10;;;;;;;;;;5127365;27;20410;-82
2021/08/05 05:43:08;;;;;;;0.00;0.00;;;;;;;;;;5127407;28;20203;-80
2021/08/05 05:45:36;;;;;;;0.00;0.00;;;;;;;;;;5112714;28;20201;-82
2021/08/05 05:48:04;;;;;;;0.03;0.03;;;;;;;;;;5114125;28;20213;-82
2021/08/05 05:50:30;;;;;;;0.10;0.10;;;;;;;;;;5127802;28;20276;-82
2021/08/05 05:52:57;;;;;;;0.03;0.03;;;;;;;;;;5122098;28;20207;-82
2021/08/05 05:55:24;;;;;;;0.00;0.00;;;;;;;;;;5117001;28;20201;-82
2021/08/05 05:57:50;;;;;;;0.00;0.00;;;;;;;;;;5126235;28;20263;-81
2021/08/05 06:00:17;;;;;;;0.00;0.00;;;;;;;;;;5125982;28;20302;-82
2021/08/05 06:02:44;;;;;;;0.10;0.10;;;;;;;;;;5118471;27;20201;-81
2021/08/05 06:05:11;;;;;;;0.10;0.10;;;;;;;;;;5115357;28;20275;-82
2021/08/05 06:07:45;;;;;;;0.10;0.10;;;;;;;;;;5108281;28;20439;-82
2021/08/05 06:10:12;;;;;;;0.05;0.05;;;;;;;;;;5105910;28;20218;-81
2021/08/05 06:12:38;;;;;;;0.08;0.08;;;;;;;;;;5106400;28;20204;-81
2021/08/05 06:15:05;;;;;;;0.10;0.10;;;;;;;;;;5111058;28;20200;-81
2021/08/05 06:17:32;;;;;;;0.00;0.00;;;;;;;;;;5113255;28;20205;-81
2021/08/05 06:19:59;;;;;;;0.00;0.00;;;;;;;;;;5110544;28;20519;-79
2021/08/05 06:22:25;;;;;;;0.00;0.00;;;;;;;;;;5121889;28;20206;-80
2021/08/05 06:24:52;;;;;;;0.00;0.00;;;;;;;;;;5119818;28;20203;-78
2021/08/05 06:27:21;;;;;;;0.00;0.00;;;;;;;;;;5121624;28;20316;-79
2021/08/05 06:29:47;;;;;;;0.10;0.10;;;;;;;;;;5119579;28;21104;-80
2021/08/05 06:32:14;;;;;;;0.10;0.10;;;;;;;;;;5120608;28;20227;-76
2021/08/05 06:34:40;;;;;;;0.05;0.05;;;;;;;;;;5121042;28;20297;-75
2021/08/05 06:37:08;;;;;;;0.00;0.00;;;;;;;;;;5121266;28;20549;-77
2021/08/05 06:39:34;;;;;;;0.10;0.10;;;;;;;;;;5121698;28;20225;-76
2021/08/05 06:42:00;;;;;;;0.00;0.00;;;;;;;;;;5119352;28;20242;-78
2021/08/05 06:44:26;;;;;;;0.00;0.00;;;;;;;;;;5121500;28;20230;-74
2021/08/05 06:46:53;;;;;;;0.10;0.10;;;;;;;;;;5120009;28;20205;-75
2021/08/05 06:49:19;;;;;;;0.00;0.00;;;;;;;;;;5120629;28;20373;-79
2021/08/05 06:51:45;;;;;;;0.00;0.00;;;;;;;;;;5120133;28;20247;-75
2021/08/05 06:54:13;;;;;;;0.00;0.00;;;;;;;;;;5120856;28;20508;-75
2021/08/05 06:56:39;;;;;;;0.00;0.00;;;;;;;;;;5121070;27;20245;-76
2021/08/05 06:59:05;;;;;;;0.10;0.10;;;;;;;;;;5121271;28;20214;-79
2021/08/05 07:01:32;;;;;;;0.10;0.10;;;;;;;;;;5119259;28;20438;-79
2021/08/05 07:03:59;;;;;;;0.10;0.10;;;;;;;;;;5120249;28;20213;-77
2021/08/05 07:06:25;;;;;;;0.00;0.00;;;;;;;;;;5120352;28;20512;-77
2021/08/05 07:08:52;;;;;;;0.10;0.10;;;;;;;;;;5120710;28;20202;-78
2021/08/05 07:11:19;;;;;;;0.10;0.10;;;;;;;;;;5121158;28;20252;-77
2021/08/05 07:13:45;;;;;;;0.10;0.10;;;;;;;;;;5120384;28;20210;-75
2021/08/05 07:16:12;;;;;;;0.00;0.00;;;;;;;;;;5119225;28;20214;-75
2021/08/05 07:18:39;;;;;;;0.00;0.00;;;;;;;;;;5120193;28;20270;-77
2021/08/05 07:21:06;;;;;;;0.00;0.00;;;;;;;;;;5121560;28;20269;-78
2021/08/05 07:23:32;;;;;;;0.10;0.10;;;;;;;;;;5119859;28;20234;-76
2021/08/05 07:25:58;;;;;;;0.17;0.17;;;;;;;;;;5120007;28;20201;-78
2021/08/05 07:28:28;;;;;;;0.10;0.10;;;;;;;;;;5118470;28;20450;-74
2021/08/05 07:30:54;;;;;;;0.10;0.10;;;;;;;;;;5120364;28;20263;-75
2021/08/05 07:33:20;;;;;;;0.00;0.00;;;;;;;;;;5118813;28;20202;-77
2021/08/05 07:35:46;;;;;;;0.00;0.00;;;;;;;;;;5120328;28;20217;-77
2021/08/05 07:38:13;;;;;;;0.10;0.10;;;;;;;;;;5119146;28;20366;-72
2021/08/05 07:40:39;;;;;;;0.10;0.10;;;;;;;;;;5118633;28;20220;-76
2021/08/05 07:43:05;;;;;;;0.00;0.00;;;;;;;;;;5118864;28;20471;-72
2021/08/05 07:45:33;;;;;;;0.00;0.00;;;;;;;;;;5117348;28;20212;-73
2021/08/05 07:48:00;;;;;;;0.00;0.00;;;;;;;;;;5118843;28;20395;-77
2021/08/05 07:50:26;;;;;;;0.00;0.00;;;;;;;;;;5118352;28;20490;-75
2021/08/05 07:52:52;;;;;;;0.00;0.00;;;;;;;;;;5118935;28;20214;-74
2021/08/05 07:55:19;;;;;;;0.10;0.10;;;;;;;;;;5118964;28;20207;-76
2021/08/05 07:57:46;;;;;;;0.05;0.05;;;;;;;;;;5120101;28;20215;-76
2021/08/05 08:00:13;;;;;;;0.03;0.03;;;;;;;;;;5117687;28;20235;-77
2021/08/05 08:02:40;;;;;;;0.00;0.00;;;;;;;;;;5117995;28;20203;-76
2021/08/05 08:05:07;;;;;;;0.00;0.00;;;;;;;;;;5118029;28;20276;-76
2021/08/05 08:07:36;;;;;;;0.00;0.00;;;;;;;;;;5118747;28;20276;-77
2021/08/05 08:10:02;;;;;;;0.00;0.00;;;;;;;;;;5117997;28;20471;-79
2021/08/05 08:12:28;;;;;;;0.00;0.00;;;;;;;;;;5119375;28;20217;-76
2021/08/05 08:14:55;;;;;;;0.00;0.00;;;;;;;;;;5118996;28;20402;-72
2021/08/05 08:17:21;;;;;;;0.10;0.10;;;;;;;;;;5118094;28;20220;-78
2021/08/05 08:19:48;;;;;;;0.00;0.00;;;;;;;;;;5119478;28;20228;-73
2021/08/05 08:22:15;;;;;;;0.00;0.00;;;;;;;;;;5118863;28;20248;-76
2021/08/05 08:24:41;;;;;;;0.00;0.00;;;;;;;;;;5118532;28;20420;-77
2021/08/05 08:27:07;;;;;;;0.10;0.10;;;;;;;;;;5118609;28;20402;-74
2021/08/05 08:29:33;;;;;;;0.00;0.00;;;;;;;;;;5121872;28;20264;-74
2021/08/05 08:32:00;;;;;;;0.00;0.00;;;;;;;;;;5122667;28;20204;-75
2021/08/05 08:34:26;;;;;;;0.00;0.00;;;;;;;;;;5122887;28;20273;-75
2021/08/05 08:36:55;;;;;;;0.00;0.00;;;;;;;;;;5122750;28;20497;-76
2021/08/05 08:39:22;;;;;;;0.00;0.00;;;;;;;;;;5123930;28;20497;-73
2021/08/05 08:41:49;;;;;;;0.00;0.00;;;;;;;;;;5122224;28;20267;-76
2021/08/05 08:44:15;;;;;;;0.08;0.08;;;;;;;;;;5122195;28;20382;-77
2021/08/05 08:46:42;;;;;;;0.00;0.00;;;;;;;;;;5122060;28;20486;-76
2021/08/05 08:49:08;;;;;;;0.00;0.00;;;;;;;;;;5120645;27;20277;-77
2021/08/05 08:51:35;;;;;;;0.00;0.00;;;;;;;;;;5122603;28;20223;-76
2021/08/05 08:54:03;;;;;;;0.00;0.00;;;;;;;;;;5123916;28;20365;-76
2021/08/05 08:56:31;;;;;;;0.00;0.00;;;;;;;;;;5122469;28;20245;-76
2021/08/05 08:58:58;;;;;;;0.10;0.10;;;;;;;;;;5119790;28;20213;-74
2021/08/05 09:01:25;;;;;;;0.00;0.00;;;;;;;;;;5121605;28;20252;-76
2021/08/05 09:03:51;;;;;;;0.10;0.10;;;;;;;;;;5124109;28;20203;-77
2021/08/05 09:06:17;;;;;;;0.00;0.00;;;;;;;;;;5121798;28;20277;-75
2021/08/05 09:08:44;;;;;;;0.00;0.00;;;;;;;;;;5115578;28;20248;-77
2021/08/05 09:11:11;;;;;;;0.10;0.10;;;;;;;;;;5111889;28;20229;-78
2021/08/05 09:13:38;;;;;;;0.00;0.00;;;;;;;;;;5112091;28;20523;-78
2021/08/05 09:16:19;;;;;;;0.10;0.10;;;;;;;;;;5126390;27;20368;-77
2021/08/05 09:18:45;;;;;;;0.00;0.00;;;;;;;;;;5111847;28;20432;-78
2021/08/05 09:21:13;;;;;;;0.00;0.00;;;;;;;;;;5126084;28;20236;-77
2021/08/05 09:23:49;;;;;;;0.00;0.00;;;;;;;;;;5124188;28;20257;-76
2021/08/05 09:26:27;;;;;;;0.00;0.00;;;;;;;;;;5114592;28;20481;-75
2021/08/05 09:29:00;;;;;;;0.00;0.00;;;;;;;;;;5126009;28;20260;-76
2021/08/05 09:31:26;;;;;;;0.00;0.00;;;;;;;;;;5118155;28;20195;-75
2021/08/05 09:33:59;;;;;;;0.00;0.00;;;;;;;;;;5110542;28;20541;-75
2021/08/05 09:36:26;;;;;;;0.00;0.00;;;;;;;;;;5110995;28;20202;-74
2021/08/05 09:38:52;;;;;;;0.00;0.00;;;;;;;;;;5114307;28;20517;-74
2021/08/05 09:41:18;;;;;;;0.10;0.10;;;;;;;;;;5113986;27;20218;-75
2021/08/05 09:43:46;;;;;;;0.00;0.00;;;;;;;;;;5118327;28;20417;-75
2021/08/05 09:46:13;;;;;;;0.00;0.00;;;;;;;;;;5105252;28;20202;-76
2021/08/05 09:48:40;;;;;;;0.10;0.10;;;;;;;;;;5107638;28;20203;-74
2021/08/05 09:51:09;;;;;;;0.00;0.00;;;;;;;;;;5120097;28;20243;-76
2021/08/05 09:53:35;;;;;;;0.05;0.05;;;;;;;;;;5112594;28;20206;-76
2021/08/05 09:56:08;;;;;;;0.00;0.00;;;;;;;;;;5119344;28;20240;-78
2021/08/05 09:58:34;;;;;;;0.00;0.00;;;;;;;;;;5110828;28;20268;-78
2021/08/05 10:01:07;;;;;;;0.00;0.00;;;;;;;;;;5104682;28;20268;-78
2021/08/05 10:03:34;;;;;;;0.00;0.00;;;;;;;;;;5113525;28;20194;-77
2021/08/05 10:06:02;;;;;;;0.00;0.00;;;;;;;;;;5122443;28;20315;-74
2021/08/05 10:08:35;;;;;;;0.00;0.00;;;;;;;;;;5109068;28;20317;-81
2021/08/05 10:11:01;;;;;;;0.00;0.00;;;;;;;;;;5109175;28;20422;-78
2021/08/05 10:13:29;;;;;;;0.00;0.00;;;;;;;;;;5109881;28;20210;-79
2021/08/05 10:15:55;;;;;;;0.00;0.00;;;;;;;;;;5125095;28;20206;-75
2021/08/05 10:18:26;;;;;;;0.00;0.00;;;;;;;;;;5124961;28;20229;-78
2021/08/05 10:20:52;;;;;;;0.00;0.00;;;;;;;;;;5111068;28;20213;-78
2021/08/05 10:23:19;;;;;;;0.00;0.00;;;;;;;;;;5124917;28;20202;-78
2021/08/05 10:25:46;;;;;;;0.00;0.00;;;;;;;;;;5119945;28;20209;-78
2021/08/05 10:28:13;;;;;;;0.00;0.00;;;;;;;;;;5115628;28;20251;-78
2021/08/05 10:30:41;;;;;;;0.00;0.00;;;;;;;;;;5125373;28;20270;-81
2021/08/05 10:33:08;;;;;;;0.00;0.00;;;;;;;;;;5124536;28;20202;-78
2021/08/05 10:35:36;;;;;;;0.00;0.00;;;;;;;;;;5124305;28;20202;-79
2021/08/05 10:38:04;;;;;;;0.00;0.00;;;;;;;;;;5124802;28;20206;-78
2021/08/05 10:40:30;;;;;;;0.10;0.10;;;;;;;;;;5124050;28;20206;-75
2021/08/05 10:42:57;;;;;;;0.00;0.00;;;;;;;;;;5110809;28;20244;-77
2021/08/05 10:45:23;;;;;;;0.10;0.10;;;;;;;;;;5112604;28;20210;-80
2021/08/05 10:47:50;;;;;;;0.00;0.00;;;;;;;;;;5123267;28;20213;-79
2021/08/05 10:50:18;;;;;;;0.00;0.00;;;;;;;;;;5112815;28;20234;-79
2021/08/05 10:52:47;;;;;;;0.00;0.00;;;;;;;;;;5121210;28;20210;-75
2021/08/05 10:55:23;;;;;;;0.00;0.00;;;;;;;;;;5106844;28;20244;-73
2021/08/05 10:58:04;;;;;;;0.00;0.00;;;;;;;;;;5108199;28;20325;-76
2021/08/05 11:00:30;;;;;;;0.05;0.05;;;;;;;;;;5110802;28;20210;-72
2021/08/05 11:02:57;;;;;;;0.00;0.00;;;;;;;;;;5109736;28;20342;-73
2021/08/05 11:05:46;;;;;;;0.10;0.10;;;;;;;;;;5109115;28;20248;-73
2021/08/05 11:08:29;;;;;;;0.00;0.00;;;;;;;;;;5113771;28;20205;-72
2021/08/05 11:11:15;;;;;;;0.00;0.00;;;;;;;;;;5103544;28;20194;-74
2021/08/05 11:13:41;;;;;;;0.00;0.00;;;;;;;;;;5109611;28;20379;-72
2021/08/05 11:16:08;;;;;;;0.00;0.00;;;;;;;;;;5116537;28;20202;-71
2021/08/05 11:18:34;;;;;;;0.00;0.00;;;;;;;;;;5109644;28;20318;-71
2021/08/05 11:21:19;;;;;;;0.00;0.00;;;;;;;;;;5103802;28;20218;-73
2021/08/05 11:23:46;;;;;;;0.00;0.00;;;;;;;;;;5109020;28;20212;-70
2021/08/05 11:26:14;;;;;;;0.00;0.00;;;;;;;;;;5111405;28;20198;-74
2021/08/05 11:28:48;;;;;;;0.00;0.00;;;;;;;;;;5107244;28;20221;-77
2021/08/05 11:31:26;;;;;;;0.00;0.00;;;;;;;;;;5109699;28;20209;-72
2021/08/05 11:33:53;;;;;;;0.00;0.00;;;;;;;;;;5105758;28;20362;-73
2021/08/05 11:36:22;;;;;;;0.00;0.00;;;;;;;;;;5108499;28;20342;-73
2021/08/05 11:38:57;;;;;;;0.00;0.00;;;;;;;;;;5103725;28;20203;-74
2021/08/05 11:41:38;;;;;;;0.00;0.00;;;;;;;;;;5103392;28;20231;-72
2021/08/05 11:44:17;;;;;;;0.00;0.00;;;;;;;;;;5103871;28;20460;-72
2021/08/05 11:46:46;;;;;;;0.00;0.00;;;;;;;;;;5105483;28;20200;-71
2021/08/05 11:49:28;;;;;;;0.00;0.00;;;;;;;;;;5109036;28;20209;-73
2021/08/05 11:51:54;;;;;;;0.00;0.00;;;;;;;;;;5117377;28;20250;-78
2021/08/05 11:54:22;;;;;;;0.10;0.10;;;;;;;;;;5117308;28;20528;-76
2021/08/05 11:56:58;;;;;;;0.00;0.00;;;;;;;;;;5108691;28;20327;-76
2021/08/05 11:59:34;;;;;;;0.00;0.00;;;;;;;;;;5113843;28;20202;-75
2021/08/05 12:02:04;;;;;;;0.00;0.00;;;;;;;;;;5111686;28;20210;-76
2021/08/05 12:04:30;;;;;;;0.00;0.00;;;;;;;;;;5117108;28;20203;-78
2021/08/05 12:07:11;;;;;;;0.00;0.00;;;;;;;;;;5106885;28;20241;-77
2021/08/05 12:09:39;;;;;;;0.00;0.00;;;;;;;;;;5118979;28;20240;-78
2021/08/05 12:12:06;;;;;;;0.00;0.00;;;;;;;;;;5119025;28;20709;-73
2021/08/05 12:14:32;;;;;;;0.00;0.00;;;;;;;;;;5124373;28;20203;-77
2021/08/05 12:16:58;;;;;;;0.08;0.08;;;;;;;;;;5112962;28;20195;-76
2021/08/05 12:19:26;;;;;;;0.10;0.10;;;;;;;;;;5115854;28;20222;-76
2021/08/05 12:21:52;;;;;;;0.00;0.00;;;;;;;;;;5126706;28;20331;-77
2021/08/05 12:24:24;;;;;;;0.00;0.00;;;;;;;;;;5113950;28;20202;-75
2021/08/05 12:26:58;;;;;;;0.10;0.10;;;;;;;;;;5115066;28;20221;-74
2021/08/05 12:29:24;;;;;;;0.00;0.00;;;;;;;;;;5110611;28;20201;-76
2021/08/05 12:31:51;;;;;;;0.00;0.00;;;;;;;;;;5115606;28;20186;-76
2021/08/05 12:34:18;;;;;;;0.00;0.00;;;;;;;;;;5118294;28;20202;-74
2021/08/05 12:36:45;;;;;;;0.00;0.00;;;;;;;;;;5115558;28;20304;-78
2021/08/05 12:39:11;;;;;;;0.00;0.00;;;;;;;;;;5119664;28;20202;-79
2021/08/05 12:41:38;;;;;;;0.00;0.00;;;;;;;;;;5110675;28;20231;-79
2021/08/05 12:44:08;;;;;;;0.10;0.10;;;;;;;;;;5113045;28;20207;-79
2021/08/05 12:46:34;;;;;;;0.00;0.00;;;;;;;;;;5113798;28;20203;-79
2021/08/05 12:49:01;;;;;;;0.00;0.00;;;;;;;;;;5113270;28;20198;-76
2021/08/05 12:51:28;;;;;;;0.00;0.00;;;;;;;;;;5107250;28;20199;-76
2021/08/05 12:53:55;;;;;;;0.00;0.00;;;;;;;;;;5113610;28;20202;-80
2021/08/05 12:56:37;;;;;;;0.00;0.00;;;;;;;;;;5115737;28;20202;-76
2021/08/05 12:59:03;;;;;;;0.00;0.00;;;;;;;;;;5116870;28;20266;-78
2021/08/05 13:01:31;;;;;;;0.00;0.00;;;;;;;;;;5111146;28;20223;-77
2021/08/05 13:03:59;;;;;;;0.00;0.00;;;;;;;;;;5110590;28;20209;-79
2021/08/05 13:06:25;;;;;;;0.00;0.00;;;;;;;;;;5115658;28;20225;-72
2021/08/05 13:08:52;;;;;;;0.00;0.00;;;;;;;;;;5114603;28;20389;-76
2021/08/05 13:11:35;;;;;;;0.00;0.00;;;;;;;;;;5115404;28;20236;-76
2021/08/05 13:14:01;;;;;;;0.00;0.00;;;;;;;;;;5114159;28;20260;-77
2021/08/05 13:16:29;;;;;;;0.00;0.00;;;;;;;;;;5106017;28;20199;-76
2021/08/05 13:19:04;;;;;;;0.00;0.00;;;;;;;;;;5109216;28;20272;-75
2021/08/05 13:21:30;;;;;;;0.00;0.00;;;;;;;;;;5108893;28;20393;-76
2021/08/05 13:24:10;;;;;;;0.00;0.00;;;;;;;;;;5118806;28;20515;-76
2021/08/05 13:26:36;;;;;;;0.08;0.08;;;;;;;;;;5104799;28;20564;-74
2021/08/05 13:29:03;;;;;;;0.00;0.00;;;;;;;;;;5114543;28;20806;-75
2021/08/05 13:31:31;;;;;;;0.00;0.00;;;;;;;;;;5117272;28;20270;-76
2021/08/05 13:34:09;;;;;;;0.00;0.00;;;;;;;;;;5119450;28;20393;-77
2021/08/05 13:36:35;;;;;;;0.00;0.00;;;;;;;;;;5110262;28;20273;-76
2021/08/05 13:39:01;;;;;;;0.00;0.00;;;;;;;;;;5117923;28;20202;-77
2021/08/05 13:41:28;;;;;;;0.00;0.00;;;;;;;;;;5112777;28;20966;-74
2021/08/05 13:43:55;;;;;;;0.00;0.00;;;;;;;;;;5111146;28;20451;-76
2021/08/05 13:46:23;;;;;;;0.00;0.00;;;;;;;;;;5109500;28;20202;-75
2021/08/05 13:48:52;;;;;;;0.00;0.00;;;;;;;;;;5119752;28;20202;-78
2021/08/05 13:51:20;;;;;;;0.00;0.00;;;;;;;;;;5115393;28;20208;-76
2021/08/05 13:53:46;;;;;;;0.00;0.00;;;;;;;;;;5109366;28;20210;-75
2021/08/05 13:56:13;;;;;;;0.00;0.00;;;;;;;;;;5112740;28;20210;-75
2021/08/05 13:58:39;;;;;;;0.00;0.00;;;;;;;;;;5113598;28;20240;-74
2021/08/05 14:01:05;;;;;;;0.00;0.00;;;;;;;;;;5107141;28;20248;-76
2021/08/05 14:03:32;;;;;;;0.00;0.00;;;;;;;;;;5112811;28;20234;-77
2021/08/05 14:05:58;;;;;;;0.00;0.00;;;;;;;;;;5106859;28;20530;-76
2021/08/05 14:08:26;;;;;;;0.00;0.00;;;;;;;;;;5117443;28;20509;-76
2021/08/05 14:10:52;;;;;;;0.00;0.00;;;;;;;;;;5106464;28;20486;-74
2021/08/05 14:13:18;;;;;;;0.00;0.00;;;;;;;;;;5117453;28;20383;-76
2021/08/05 14:15:45;;;;;;;0.00;0.00;;;;;;;;;;5109290;28;20205;-78
2021/08/05 14:18:12;;;;;;;0.00;0.00;;;;;;;;;;5109648;28;20223;-76
2021/08/05 14:20:41;;;;;;;0.00;0.00;;;;;;;;;;5113295;28;20209;-77
2021/08/05 14:23:07;;;;;;;0.00;0.00;;;;;;;;;;5104919;28;20272;-77
2021/08/05 14:25:35;;;;;;;0.00;0.00;;;;;;;;;;5109425;28;20249;-77
2021/08/05 14:28:01;;;;;;;0.00;0.00;;;;;;;;;;5109454;28;20234;-77
2021/08/05 14:30:28;;;;;;;0.00;0.00;;;;;;;;;;5106250;28;20264;-80
2021/08/05 14:32:54;;;;;;;0.00;0.00;;;;;;;;;;5121063;28;20528;-79
2021/08/05 14:35:20;;;;;;;0.10;0.10;;;;;;;;;;5107701;28;20248;-79
2021/08/05 14:37:46;;;;;;;0.00;0.00;;;;;;;;;;5108667;28;20248;-79
2021/08/05 14:40:14;;;;;;;0.00;0.00;;;;;;;;;;5117934;28;20228;-77
2021/08/05 14:42:43;;;;;;;0.00;0.00;;;;;;;;;;5112455;28;20275;-77
2021/08/05 14:45:09;;;;;;;1.55;0.75;;;;;;;;;;5109067;28;20393;-75